West Rushville, OH (43163)

7:44 PM EDT on July 02, 2015 (GMT -0400)
Fairfield County Weather | | Change Station
CLOSE
Current Station
Personal Weather Station
Location: Lancaster, OH
Elevation: 958 ft
Nearby Weather Stations

Elev 958 ft 39.75 °N, 82.57 °W | Updated 35 seconds ago

Overcast
Overcast
72.3 °F
Feels Like 74 °F
N
0.0
Wind Variable Wind from NE
Gusts 0.0 mph

Today
High -- | Low -- °F
--% Chance of Precip.
Yesterday
High -- | Low -- °F
Precip. -- in
6:05 AM 9:01 PM
Full, 99% visible
Pressure 29.92 in
Visibility 9.0 miles
Clouds Mostly Cloudy 5500 ft
Mostly Cloudy 7500 ft
Heat Index 74 °F
Dew Point 64 °F
Humidity 76%
Rainfall 0.02 in
Snow Depth Not available.
UV 1 out of 12
Pollen 3.80 out of 12
Air Quality Not available.
Flu Activity Not available.
METAR KLHQ 022253Z AUTO 07004KT 9SM BKN055 BKN075 22/18 A2993 RMK AO2 SLP130 T02220178

More Conditions Fewer Conditions

Pressure 29.92 in
Visibility 9.0 miles
Clouds Mostly Cloudy 5500 ft
Mostly Cloudy 7500 ft
Heat Index 74 °F
Dew Point 64 °F
Humidity 76%
Rainfall 0.02 in
Snow Depth Not available.
UV 1 out of 12
Pollen 3.80 out of 12
Air Quality Not available.
Flu Activity Not available.
METAR KLHQ 022253Z AUTO 07004KT 9SM BKN055 BKN075 22/18 A2993 RMK AO2 SLP130 T02220178

More Conditions Fewer Conditions

10-Day Weather Forecast

×

Almanac

Astronomy

Jul. 02, 2015 Rise Set
Actual Time
Civil Twilight
Nautical Twilight
Astronomical Twilight
Moon
Length of Visible Light
Length of Day
Tomorrow will be .
, % of the Moon is Illuminated

Today's Extremes

State Highs State Lows

Community

WunderPhotos

Upload Photos

1,834,569 photos uploaded!

WunderBlogs® & News

Nearby

Air Quality

  Air Quality AQ Index Pollutant
Not available.

Snow Depth

Station Depth Elevation

Earthquake Activity

City Distance Mag. Time & Date
Minimum magnitude displayed is 2.5.

Coastal Water Temperatures

Place Temperature

Stations

Nearby Weather Stations

Station Location Temp. Windchill Dew Point Humidity Wind Precip. Elev Updated Type